Time;durP1;ratioP1;P1;durP2;ratioP2;P2;SDS_P1;SDS_P2;PMS_P1;PMS_P2;Temp;Humidity;BMP_temperature;BMP_pressure;BME280_temperature;BME280_humidity;BME280_pressure;Samples;Min_cycle;Max_cycle;Signal;HPM_P1;HPM_P2
2021/11/13 00:00:49;;;;;;;12.35;8.60;;;8.90;92.30;;;;;;2097165;28;20051;-89
2021/11/13 00:01:49;;;;;;;13.63;9.57;;;8.90;92.30;;;;;;2106186;28;20036;-90
2021/11/13 00:02:50;;;;;;;14.57;9.57;;;8.90;92.60;;;;;;2089723;28;20025;-90
2021/11/13 00:03:51;;;;;;;13.90;9.50;;;8.90;92.40;;;;;;2091835;28;20530;-90
2021/11/13 00:04:52;;;;;;;12.95;9.38;;;8.90;92.40;;;;;;2098369;28;20025;-90
2021/11/13 00:05:53;;;;;;;12.63;9.23;;;8.90;92.40;;;;;;2097573;28;20021;-89
2021/11/13 00:06:53;;;;;;;13.00;9.13;;;8.90;92.40;;;;;;2097851;28;20039;-90
2021/11/13 00:07:54;;;;;;;12.18;9.07;;;8.90;92.40;;;;;;2089926;28;20029;-89
2021/11/13 00:08:55;;;;;;;13.13;9.15;;;8.90;92.40;;;;;;2093555;28;20028;-89
2021/11/13 00:09:55;;;;;;;12.77;9.20;;;8.90;92.50;;;;;;2097786;28;20028;-90
2021/11/13 00:10:56;;;;;;;14.30;9.88;;;9.00;92.50;;;;;;2106023;28;20035;-90
2021/11/13 00:11:58;;;;;;;12.63;8.77;;;8.90;92.50;;;;;;2099320;28;20039;-90
2021/11/13 00:13:01;;;;;;;13.68;9.52;;;8.90;92.50;;;;;;2083893;28;20388;-90
2021/11/13 00:14:03;;;;;;;15.50;9.77;;;9.00;92.60;;;;;;2088674;28;20036;-89
2021/11/13 00:15:07;;;;;;;13.93;9.93;;;9.00;92.60;;;;;;2090057;28;20033;-89
2021/11/13 00:16:09;;;;;;;13.30;9.88;;;9.00;92.60;;;;;;2098875;28;20021;-90
2021/11/13 00:17:09;;;;;;;12.25;9.48;;;9.00;92.60;;;;;;2111559;28;20042;-90
2021/11/13 00:18:11;;;;;;;13.23;9.68;;;9.00;92.60;;;;;;2112833;28;20027;-90
2021/11/13 00:19:12;;;;;;;12.05;9.02;;;9.00;92.60;;;;;;2112928;28;20039;-91
2021/11/13 00:20:13;;;;;;;12.65;9.02;;;9.00;92.60;;;;;;2114140;28;20042;-90
2021/11/13 00:21:14;;;;;;;13.93;9.65;;;9.00;92.70;;;;;;2114545;28;20040;-91
2021/11/13 00:22:15;;;;;;;14.25;9.73;;;9.00;92.70;;;;;;2109933;28;20081;-90
2021/11/13 00:23:15;;;;;;;13.07;9.82;;;9.00;92.70;;;;;;2115394;28;20027;-91
2021/11/13 00:24:17;;;;;;;13.35;9.43;;;9.00;92.70;;;;;;2113307;28;20448;-91
2021/11/13 00:25:17;;;;;;;13.48;9.60;;;9.00;92.70;;;;;;2113603;28;20035;-90
2021/11/13 00:26:18;;;;;;;13.25;9.50;;;9.00;92.70;;;;;;2114608;28;20487;-89
2021/11/13 00:27:19;;;;;;;13.18;9.02;;;9.00;92.70;;;;;;2099798;28;20070;-90
2021/11/13 00:28:19;;;;;;;13.52;9.57;;;9.00;92.70;;;;;;2090469;28;20017;-90
2021/11/13 00:29:20;;;;;;;13.45;9.40;;;9.00;92.70;;;;;;2106800;28;20047;-90
2021/11/13 00:30:21;;;;;;;14.10;9.95;;;9.10;92.80;;;;;;2108742;28;20038;-90
2021/11/13 00:31:22;;;;;;;14.52;9.80;;;9.00;92.70;;;;;;2106730;28;20570;-91
2021/11/13 00:32:22;;;;;;;14.00;10.10;;;9.10;92.80;;;;;;2107200;28;20069;-90
2021/11/13 00:33:25;;;;;;;12.75;9.35;;;9.00;92.80;;;;;;2098780;28;20063;-90
2021/11/13 00:34:26;;;;;;;14.27;10.05;;;9.10;92.80;;;;;;2094078;28;20025;-90
2021/11/13 00:35:26;;;;;;;14.63;10.05;;;9.00;92.80;;;;;;2095926;28;20585;-90
2021/11/13 00:36:27;;;;;;;13.77;9.43;;;9.10;92.80;;;;;;2097692;28;20055;-90
2021/11/13 00:37:28;;;;;;;15.45;10.93;;;9.10;92.80;;;;;;2100733;28;20093;-91
2021/11/13 00:38:28;;;;;;;14.15;9.88;;;9.10;92.90;;;;;;2119319;28;20011;-90
2021/11/13 00:39:29;;;;;;;15.13;10.52;;;9.00;92.80;;;;;;2115342;28;20092;-89
2021/11/13 00:40:30;;;;;;;13.55;10.38;;;9.10;92.90;;;;;;2116692;28;20032;-86
2021/11/13 00:41:30;;;;;;;15.77;10.73;;;9.10;92.90;;;;;;2115803;28;20035;-89
2021/11/13 00:42:31;;;;;;;13.70;10.40;;;9.10;92.90;;;;;;2120165;28;20023;-84
2021/11/13 00:43:32;;;;;;;14.30;10.70;;;9.10;92.90;;;;;;2124978;28;20014;-84
2021/11/13 00:44:34;;;;;;;14.25;10.52;;;9.10;92.90;;;;;;2110037;28;20016;-86
2021/11/13 00:45:34;;;;;;;16.25;10.82;;;9.10;92.90;;;;;;2116296;28;20016;-90
2021/11/13 00:46:35;;;;;;;14.60;10.02;;;9.10;92.90;;;;;;2107116;28;20051;-90
2021/11/13 00:47:37;;;;;;;15.70;10.48;;;9.10;93.00;;;;;;2089686;28;20064;-89
2021/11/13 00:48:37;;;;;;;13.65;10.15;;;9.10;93.00;;;;;;2099805;28;20028;-89
2021/11/13 00:49:38;;;;;;;14.30;9.90;;;9.10;93.00;;;;;;2095925;28;20035;-90
2021/11/13 00:50:40;;;;;;;15.40;10.52;;;9.10;93.00;;;;;;2090002;28;20025;-90
2021/11/13 00:51:41;;;;;;;16.52;11.23;;;9.10;93.00;;;;;;2099163;28;20024;-90
2021/11/13 00:52:42;;;;;;;16.30;10.98;;;9.10;93.10;;;;;;2091202;28;20029;-90
2021/11/13 00:53:42;;;;;;;15.23;10.85;;;9.10;93.10;;;;;;2089439;28;20455;-90
2021/11/13 00:54:44;;;;;;;15.70;11.13;;;9.10;93.10;;;;;;2087526;28;20037;-90
2021/11/13 00:55:44;;;;;;;16.02;11.25;;;9.10;93.10;;;;;;2096575;28;20043;-90
2021/11/13 00:56:47;;;;;;;16.27;10.75;;;9.10;93.10;;;;;;2099745;28;20116;-90
2021/11/13 00:57:47;;;;;;;15.98;11.18;;;9.10;93.40;;;;;;2116348;28;20070;-91
2021/11/13 00:58:48;;;;;;;16.00;10.85;;;9.10;93.10;;;;;;2115291;28;20028;-90
2021/11/13 00:59:49;;;;;;;17.15;10.70;;;9.10;93.10;;;;;;2108084;28;20068;-90
2021/11/13 01:00:50;;;;;;;14.65;10.65;;;9.10;93.10;;;;;;2111004;28;20032;-90
2021/11/13 01:01:50;;;;;;;15.73;10.40;;;9.10;93.20;;;;;;2099240;28;20636;-90
2021/11/13 01:02:51;;;;;;;14.73;10.65;;;9.10;93.20;;;;;;2096985;28;20626;-90
2021/11/13 01:03:52;;;;;;;15.15;10.93;;;9.10;93.20;;;;;;2082548;28;20529;-90
2021/11/13 01:04:53;;;;;;;15.75;10.75;;;9.10;93.20;;;;;;2098397;28;20028;-91
2021/11/13 01:05:54;;;;;;;15.77;10.90;;;9.10;93.20;;;;;;2112409;28;20035;-90
2021/11/13 01:06:54;;;;;;;15.45;11.25;;;9.10;93.20;;;;;;2097712;28;20131;-90
2021/11/13 01:07:55;;;;;;;15.43;10.35;;;9.10;93.20;;;;;;2090555;28;20090;-90
2021/11/13 01:08:56;;;;;;;14.48;10.38;;;9.10;93.20;;;;;;2090918;28;20044;-90
2021/11/13 01:09:56;;;;;;;15.50;10.52;;;9.10;93.20;;;;;;2099268;28;20383;-90
2021/11/13 01:10:57;;;;;;;16.13;10.90;;;9.10;93.50;;;;;;2099517;28;20399;-90
2021/11/13 01:11:58;;;;;;;16.25;10.85;;;9.10;93.20;;;;;;2091172;28;20383;-90
2021/11/13 01:12:59;;;;;;;14.77;10.75;;;9.10;93.30;;;;;;2114579;28;20036;-90
2021/11/13 01:14:00;;;;;;;16.63;11.10;;;9.10;93.30;;;;;;2109401;28;20398;-91
2021/11/13 01:15:02;;;;;;;16.92;11.38;;;9.10;93.30;;;;;;2108563;28;20035;-90
2021/11/13 01:16:03;;;;;;;13.80;10.23;;;9.10;93.30;;;;;;2106856;28;20016;-90
2021/11/13 01:17:06;;;;;;;14.57;10.38;;;9.10;93.30;;;;;;2089592;28;20071;-90
2021/11/13 01:18:06;;;;;;;15.73;10.27;;;9.10;93.30;;;;;;2090248;28;20045;-90
2021/11/13 01:19:07;;;;;;;15.20;10.38;;;9.10;93.30;;;;;;2116860;28;20405;-90
2021/11/13 01:20:10;;;;;;;14.32;10.45;;;9.10;93.30;;;;;;2097396;28;20104;-90
2021/11/13 01:21:11;;;;;;;17.27;11.10;;;9.10;93.30;;;;;;2099740;28;20024;-90
2021/11/13 01:22:15;;;;;;;15.52;10.48;;;9.10;93.30;;;;;;2105331;28;20139;-91
2021/11/13 01:23:16;;;;;;;15.75;10.75;;;9.10;93.40;;;;;;2092527;28;20037;-91
2021/11/13 01:24:17;;;;;;;15.20;11.40;;;9.10;93.40;;;;;;2090737;28;20033;-91
2021/11/13 01:25:19;;;;;;;14.80;10.63;;;9.10;93.40;;;;;;2093189;28;20461;-90
2021/11/13 01:26:20;;;;;;;15.00;10.38;;;9.20;93.40;;;;;;2115021;28;20031;-91
2021/11/13 01:27:21;;;;;;;16.33;11.35;;;9.10;93.40;;;;;;2104260;28;20077;-90
2021/11/13 01:28:21;;;;;;;15.38;10.30;;;9.20;93.40;;;;;;2090583;28;20063;-91
2021/11/13 01:29:22;;;;;;;16.15;10.85;;;9.20;93.40;;;;;;2081918;28;20072;-91
2021/11/13 01:30:23;;;;;;;15.70;10.20;;;9.10;93.40;;;;;;2092884;28;20112;-90
2021/11/13 01:31:24;;;;;;;15.68;10.18;;;9.20;93.40;;;;;;2099100;28;20016;-91
2021/11/13 01:32:25;;;;;;;16.02;10.38;;;9.10;93.40;;;;;;2094504;28;20474;-90
2021/11/13 01:33:26;;;;;;;14.73;10.10;;;9.20;93.40;;;;;;2107506;28;20027;-91
2021/11/13 01:34:26;;;;;;;15.02;10.10;;;9.10;93.40;;;;;;2108025;28;20024;-91
2021/11/13 01:35:27;;;;;;;14.25;10.05;;;9.10;93.40;;;;;;2115293;28;20118;-90
2021/11/13 01:36:28;;;;;;;14.63;10.02;;;9.10;93.40;;;;;;2115043;28;20048;-90
2021/11/13 01:37:28;;;;;;;13.77;9.70;;;9.10;93.40;;;;;;2111495;28;20028;-90
2021/11/13 01:38:29;;;;;;;15.10;10.43;;;9.10;93.40;;;;;;2112763;28;20053;-91
2021/11/13 01:39:30;;;;;;;15.25;10.02;;;9.10;93.40;;;;;;2111966;28;20047;-90
2021/11/13 01:40:31;;;;;;;14.63;10.10;;;9.10;93.50;;;;;;2115666;28;20513;-90
2021/11/13 01:41:32;;;;;;;15.65;10.27;;;9.20;93.50;;;;;;2107233;28;20050;-91
2021/11/13 01:42:33;;;;;;;14.98;10.18;;;9.20;93.50;;;;;;2107160;28;20028;-90
2021/11/13 01:43:37;;;;;;;14.82;10.38;;;9.20;93.50;;;;;;2113112;28;20093;-91
2021/11/13 01:44:38;;;;;;;13.23;10.00;;;9.10;93.50;;;;;;2111694;28;20040;-91
2021/11/13 01:45:38;;;;;;;13.77;10.20;;;9.20;93.50;;;;;;2113980;28;20473;-91
2021/11/13 01:46:39;;;;;;;15.10;10.57;;;9.20;93.50;;;;;;2115650;28;20119;-91
2021/11/13 01:47:40;;;;;;;14.20;10.43;;;9.20;93.50;;;;;;2106006;28;20505;-91
2021/11/13 01:48:41;;;;;;;15.60;10.52;;;9.20;93.50;;;;;;2111845;28;20417;-90
2021/11/13 01:49:41;;;;;;;14.73;10.15;;;9.20;93.50;;;;;;2108574;28;20122;-90
2021/11/13 01:50:45;;;;;;;14.50;10.07;;;9.20;93.50;;;;;;2107838;28;20024;-90
2021/11/13 01:51:49;;;;;;;14.82;10.38;;;9.20;93.60;;;;;;2115929;28;20517;-90
2021/11/13 01:52:50;;;;;;;14.82;10.45;;;9.20;93.60;;;;;;2106589;28;20036;-91
2021/11/13 01:53:54;;;;;;;13.88;10.05;;;9.20;93.60;;;;;;2107225;28;20492;-90
2021/11/13 01:54:55;;;;;;;14.65;10.52;;;9.20;93.60;;;;;;2107863;28;20409;-91
2021/11/13 01:55:56;;;;;;;15.38;10.77;;;9.20;93.60;;;;;;2108414;28;20031;-91
2021/11/13 01:56:57;;;;;;;13.52;9.85;;;9.20;93.60;;;;;;2108185;28;20028;-91
2021/11/13 01:58:01;;;;;;;12.85;9.18;;;9.20;93.60;;;;;;2113917;28;20031;-90
2021/11/13 01:59:05;;;;;;;14.13;10.23;;;9.20;93.60;;;;;;2109619;28;20028;-90
2021/11/13 02:00:07;;;;;;;14.73;9.68;;;9.20;93.60;;;;;;2107530;28;20022;-91
2021/11/13 02:01:07;;;;;;;13.57;9.25;;;9.20;93.60;;;;;;2107173;28;20082;-90
2021/11/13 02:02:09;;;;;;;14.07;10.13;;;9.20;93.60;;;;;;2111245;28;20031;-90
2021/11/13 02:03:11;;;;;;;14.38;9.52;;;9.20;93.60;;;;;;2115708;28;20044;-90
2021/11/13 02:04:12;;;;;;;13.90;9.48;;;9.20;93.70;;;;;;2114162;28;20100;-90
2021/11/13 02:05:12;;;;;;;14.18;9.40;;;9.20;93.60;;;;;;2115173;28;20028;-90
2021/11/13 02:06:16;;;;;;;13.82;10.13;;;9.20;93.70;;;;;;2115327;28;20401;-91
2021/11/13 02:07:16;;;;;;;12.57;10.00;;;9.20;93.70;;;;;;2102177;28;20035;-91
2021/11/13 02:08:18;;;;;;;13.48;10.02;;;9.20;93.70;;;;;;2108277;28;20454;-90
2021/11/13 02:09:18;;;;;;;13.38;9.75;;;9.20;93.70;;;;;;2116599;28;20031;-91
2021/11/13 02:10:20;;;;;;;13.60;9.60;;;9.20;93.70;;;;;;2111680;28;20103;-91
2021/11/13 02:11:24;;;;;;;14.38;9.93;;;9.30;93.70;;;;;;2112498;28;20024;-90
2021/11/13 02:12:25;;;;;;;13.23;9.93;;;9.20;93.70;;;;;;2106782;28;20119;-91
2021/11/13 02:13:25;;;;;;;14.38;9.70;;;9.20;93.70;;;;;;2108029;28;20501;-91
2021/11/13 02:14:27;;;;;;;13.95;10.40;;;9.20;93.70;;;;;;2104978;28;20055;-90
2021/11/13 02:15:28;;;;;;;13.80;10.07;;;9.20;93.70;;;;;;2106976;28;20030;-91
2021/11/13 02:16:30;;;;;;;15.90;10.75;;;9.30;93.70;;;;;;2102455;28;20068;-90
2021/11/13 02:17:31;;;;;;;13.40;9.73;;;9.20;93.70;;;;;;2108916;28;20034;-83
2021/11/13 02:18:31;;;;;;;12.43;9.43;;;9.30;93.70;;;;;;2124723;28;20016;-90
2021/11/13 02:19:32;;;;;;;11.50;8.90;;;9.30;94.00;;;;;;2116642;28;20051;-90
2021/11/13 02:20:41;;;;;;;12.38;9.25;;;9.20;93.70;;;;;;2120045;28;20020;-92
2021/11/13 02:21:42;;;;;;;12.52;9.32;;;9.30;93.80;;;;;;2119261;28;20050;-91
2021/11/13 02:22:43;;;;;;;13.25;9.18;;;9.30;93.80;;;;;;2124935;28;20015;-90
2021/11/13 02:23:44;;;;;;;12.98;9.48;;;9.30;93.80;;;;;;2099767;28;20017;-91
2021/11/13 02:24:46;;;;;;;13.13;9.50;;;9.30;93.80;;;;;;2109143;28;20019;-91
2021/11/13 02:25:48;;;;;;;12.35;9.13;;;9.30;93.80;;;;;;2126009;28;20022;-85
2021/11/13 02:26:48;;;;;;;12.10;8.88;;;9.30;93.80;;;;;;2115304;28;20050;-92
2021/11/13 02:27:50;;;;;;;12.15;9.27;;;9.30;93.80;;;;;;2108492;28;20547;-92
2021/11/13 02:28:54;;;;;;;13.13;9.60;;;9.30;93.80;;;;;;2111348;28;20024;-92
2021/11/13 02:29:55;;;;;;;12.75;9.27;;;9.30;93.80;;;;;;2116328;28;20028;-91
2021/11/13 02:30:58;;;;;;;13.73;9.75;;;9.30;93.80;;;;;;2111221;28;20830;-91
2021/11/13 02:32:00;;;;;;;11.25;8.77;;;9.30;93.80;;;;;;2110570;28;20509;-91
2021/11/13 02:33:01;;;;;;;11.65;8.93;;;9.30;93.80;;;;;;2107032;28;20032;-92
2021/11/13 02:34:04;;;;;;;12.13;8.90;;;9.30;93.80;;;;;;2098775;28;20478;-92
2021/11/13 02:35:07;;;;;;;12.95;8.98;;;9.30;93.80;;;;;;2106679;28;20024;-91
2021/11/13 02:36:09;;;;;;;13.45;9.52;;;9.30;93.80;;;;;;2103664;28;20116;-91
2021/11/13 02:37:10;;;;;;;12.00;9.20;;;9.30;93.80;;;;;;2099244;28;20040;-91
2021/11/13 02:38:11;;;;;;;14.18;9.15;;;9.30;93.90;;;;;;2107177;28;20542;-91
2021/11/13 02:39:13;;;;;;;13.00;9.45;;;9.30;93.90;;;;;;2102638;28;20426;-91
2021/11/13 02:40:14;;;;;;;10.73;8.70;;;9.30;93.90;;;;;;2107965;28;20063;-92
2021/11/13 02:41:17;;;;;;;11.32;8.90;;;9.40;93.90;;;;;;2106195;28;20525;-91
2021/11/13 02:42:21;;;;;;;12.10;9.10;;;9.30;93.90;;;;;;2112155;28;20078;-92
2021/11/13 02:43:24;;;;;;;11.63;8.60;;;9.30;93.90;;;;;;2111455;28;20035;-92
2021/11/13 02:44:26;;;;;;;11.48;8.73;;;9.30;93.90;;;;;;2106934;28;20093;-92
2021/11/13 02:45:27;;;;;;;12.60;9.38;;;9.30;93.90;;;;;;2090695;28;20033;-92
2021/11/13 02:46:28;;;;;;;13.40;9.77;;;9.40;93.90;;;;;;2094735;28;20025;-92
2021/11/13 02:47:28;;;;;;;12.18;9.07;;;9.40;94.00;;;;;;2107093;28;20036;-90
2021/11/13 02:48:32;;;;;;;12.32;9.43;;;9.40;93.90;;;;;;2109044;28;20421;-91
2021/11/13 02:49:33;;;;;;;12.00;9.30;;;9.40;94.00;;;;;;2117928;27;20038;-91
2021/11/13 02:50:36;;;;;;;11.20;8.52;;;9.40;94.00;;;;;;2118126;28;20024;-89
2021/11/13 02:51:37;;;;;;;11.70;8.88;;;9.40;94.00;;;;;;2116359;28;20052;-84
2021/11/13 02:52:50;;;;;;;13.60;9.20;;;9.40;94.00;;;;;;2103907;28;20082;-90
2021/11/13 02:53:52;;;;;;;12.32;9.13;;;9.40;94.00;;;;;;2108374;28;20028;-90
2021/11/13 02:54:53;;;;;;;11.40;8.80;;;9.40;94.00;;;;;;2104128;28;20028;-91
2021/11/13 02:55:55;;;;;;;11.90;9.07;;;9.40;94.00;;;;;;2099191;28;20035;-91
2021/11/13 02:56:55;;;;;;;13.48;9.60;;;9.40;94.00;;;;;;2107259;28;20036;-90
2021/11/13 02:57:57;;;;;;;11.88;8.68;;;9.40;94.00;;;;;;2106646;28;20057;-90
2021/11/13 02:58:58;;;;;;;13.07;9.27;;;9.40;94.00;;;;;;2107089;28;20054;-92
2021/11/13 02:59:58;;;;;;;11.70;8.90;;;9.40;94.00;;;;;;2110744;28;20024;-91
2021/11/13 03:01:05;;;;;;;12.73;9.10;;;9.40;94.00;;;;;;2112977;28;20026;-91
2021/11/13 03:02:05;;;;;;;12.85;9.40;;;9.40;94.00;;;;;;2110169;28;20052;-91
2021/11/13 03:03:06;;;;;;;13.13;9.98;;;9.40;94.00;;;;;;2100419;28;20037;-91
2021/11/13 03:04:07;;;;;;;13.45;10.02;;;9.40;94.00;;;;;;2106944;28;20485;-91
2021/11/13 03:05:35;;;;;;;12.48;9.43;;;9.40;94.30;;;;;;2098430;28;20398;-91
2021/11/13 03:06:35;;;;;;;12.00;9.18;;;9.50;94.00;;;;;;2102144;28;20028;-91
2021/11/13 03:07:36;;;;;;;11.30;8.80;;;9.40;94.00;;;;;;2105995;28;20024;-91
2021/11/13 03:08:37;;;;;;;12.68;9.00;;;9.50;94.00;;;;;;2098428;28;20056;-91
2021/11/13 03:09:38;;;;;;;13.20;9.98;;;9.50;94.00;;;;;;2098250;28;20021;-91
2021/11/13 03:10:39;;;;;;;12.18;9.48;;;9.40;94.00;;;;;;2113906;28;20031;-90
2021/11/13 03:11:40;;;;;;;12.63;9.73;;;9.50;94.10;;;;;;2106966;28;20419;-91
2021/11/13 03:12:40;;;;;;;12.98;10.00;;;9.50;94.10;;;;;;2098544;28;20499;-92
2021/11/13 03:13:44;;;;;;;11.93;9.10;;;9.50;94.10;;;;;;2102535;28;20070;-91
2021/11/13 03:14:45;;;;;;;11.98;9.15;;;9.50;94.30;;;;;;2114213;28;20110;-90
2021/11/13 03:15:47;;;;;;;12.52;9.43;;;9.50;94.30;;;;;;2098952;28;20080;-91
2021/11/13 03:16:48;;;;;;;12.93;9.32;;;9.50;94.10;;;;;;2098076;28;20047;-91
2021/11/13 03:17:50;;;;;;;12.15;9.15;;;9.50;94.10;;;;;;2098460;28;20487;-92
2021/11/13 03:18:51;;;;;;;13.05;9.40;;;9.50;94.10;;;;;;2101483;28;20423;-91
2021/11/13 03:19:51;;;;;;;12.88;9.85;;;9.50;94.10;;;;;;2096073;28;20041;-91
2021/11/13 03:20:52;;;;;;;12.50;9.38;;;9.50;94.10;;;;;;2100963;28;20029;-92
2021/11/13 03:21:53;;;;;;;13.05;9.80;;;9.50;94.10;;;;;;2107184;28;20147;-92
2021/11/13 03:22:56;;;;;;;12.75;9.55;;;9.50;94.40;;;;;;2107702;28;21747;-91
2021/11/13 03:23:57;;;;;;;12.63;9.80;;;9.50;94.10;;;;;;2111514;28;20076;-91
2021/11/13 03:24:58;;;;;;;12.65;9.77;;;9.50;94.10;;;;;;2113358;28;20081;-91
2021/11/13 03:26:08;;;;;;;13.20;10.07;;;9.50;94.10;;;;;;2106832;28;20094;-91
2021/11/13 03:27:09;;;;;;;13.23;9.40;;;9.60;94.10;;;;;;2099724;28;20406;-91
2021/11/13 03:28:14;;;;;;;13.30;9.70;;;9.60;94.10;;;;;;2098403;28;20032;-91
2021/11/13 03:29:20;;;;;;;12.43;9.02;;;9.60;94.10;;;;;;2106566;28;20150;-91
2021/11/13 03:30:22;;;;;;;11.40;8.82;;;9.60;94.10;;;;;;2112500;28;20035;-91
2021/11/13 03:31:24;;;;;;;11.75;8.88;;;9.60;94.10;;;;;;2115621;28;20020;-90
2021/11/13 03:32:25;;;;;;;12.48;9.07;;;9.60;94.10;;;;;;2114186;28;20113;-90
2021/11/13 03:33:26;;;;;;;13.43;9.55;;;9.60;94.10;;;;;;2110665;28;20111;-90
2021/11/13 03:34:26;;;;;;;13.00;9.40;;;9.60;94.20;;;;;;2106594;28;20082;-91
2021/11/13 03:35:28;;;;;;;11.75;9.40;;;9.60;94.10;;;;;;2095578;28;20048;-90
2021/11/13 03:36:28;;;;;;;13.82;10.23;;;9.60;94.10;;;;;;2090851;28;20356;-90
2021/11/13 03:37:30;;;;;;;12.82;9.77;;;9.60;94.20;;;;;;2090036;28;20052;-90
2021/11/13 03:38:31;;;;;;;13.30;9.75;;;9.60;94.20;;;;;;2107859;28;20016;-90
2021/11/13 03:39:31;;;;;;;12.90;9.68;;;9.60;94.20;;;;;;2109802;28;20032;-91
2021/11/13 03:40:34;;;;;;;12.52;9.70;;;9.60;94.20;;;;;;2110482;28;20028;-91
2021/11/13 03:41:35;;;;;;;13.98;9.48;;;9.60;94.20;;;;;;2110470;28;20062;-91
2021/11/13 03:42:38;;;;;;;13.45;9.80;;;9.60;94.20;;;;;;2112835;28;20020;-90
2021/11/13 03:43:39;;;;;;;15.73;9.75;;;9.60;94.20;;;;;;2108019;28;20028;-91
2021/11/13 03:44:39;;;;;;;13.18;9.38;;;9.60;94.20;;;;;;2110589;28;20044;-90
2021/11/13 03:45:41;;;;;;;14.27;10.13;;;9.60;94.20;;;;;;2104719;28;20032;-91
2021/11/13 03:46:42;;;;;;;13.88;10.23;;;9.60;94.20;;;;;;2090439;28;20024;-91
2021/11/13 03:47:43;;;;;;;15.10;10.52;;;9.70;94.20;;;;;;2095275;28;20032;-91
2021/11/13 03:48:46;;;;;;;15.40;10.65;;;9.60;94.20;;;;;;2087529;28;20219;-91
2021/11/13 03:49:46;;;;;;;14.75;11.00;;;9.60;94.20;;;;;;2090275;28;20507;-91
2021/11/13 03:50:48;;;;;;;15.02;10.70;;;9.70;94.20;;;;;;2089969;28;20033;-91
2021/11/13 03:51:49;;;;;;;14.70;10.52;;;9.60;94.20;;;;;;2114773;28;20027;-90
2021/11/13 03:52:51;;;;;;;14.57;10.75;;;9.70;94.20;;;;;;2112415;28;20065;-91
2021/11/13 03:53:52;;;;;;;14.55;10.40;;;9.70;94.30;;;;;;2106372;28;20027;-90
2021/11/13 03:54:53;;;;;;;13.10;10.13;;;9.70;94.20;;;;;;2096444;28;20040;-91
2021/11/13 03:55:53;;;;;;;14.45;10.38;;;9.70;94.30;;;;;;2098066;28;20041;-90
2021/11/13 03:56:54;;;;;;;14.32;10.38;;;9.70;94.30;;;;;;2090417;28;20014;-91
2021/11/13 03:57:55;;;;;;;14.50;10.57;;;9.70;94.30;;;;;;2103586;28;20029;-90
2021/11/13 03:58:56;;;;;;;14.20;10.75;;;9.70;94.30;;;;;;2117702;28;20011;-84
2021/11/13 03:59:56;;;;;;;14.27;10.60;;;9.70;94.30;;;;;;2121521;28;20146;-84
2021/11/13 04:00:57;;;;;;;15.40;11.10;;;9.70;94.30;;;;;;2114227;28;20025;-83
2021/11/13 04:01:59;;;;;;;12.55;9.75;;;9.70;94.30;;;;;;2100170;28;20096;-84
2021/11/13 04:03:00;;;;;;;13.70;10.35;;;9.70;94.30;;;;;;2108818;28;20025;-81
2021/11/13 04:04:01;;;;;;;15.27;10.40;;;9.70;94.30;;;;;;2118635;28;20016;-85
2021/11/13 04:05:02;;;;;;;14.10;10.43;;;9.70;94.30;;;;;;2108527;28;20055;-90
2021/11/13 04:06:03;;;;;;;14.32;10.18;;;9.70;94.30;;;;;;2106335;28;20020;-90
2021/11/13 04:07:04;;;;;;;13.07;10.05;;;9.70;94.30;;;;;;2106388;28;20032;-90
2021/11/13 04:08:04;;;;;;;13.48;10.65;;;9.70;94.30;;;;;;2110848;28;20036;-90
2021/11/13 04:09:05;;;;;;;13.30;9.88;;;9.80;94.30;;;;;;2106471;28;20024;-90
2021/11/13 04:10:07;;;;;;;13.57;9.98;;;9.70;94.30;;;;;;2106952;28;20039;-91
2021/11/13 04:11:08;;;;;;;14.20;10.25;;;9.70;94.30;;;;;;2106733;28;20473;-91
2021/11/13 04:12:10;;;;;;;14.48;10.60;;;9.80;94.30;;;;;;2107533;28;20031;-90
2021/11/13 04:13:11;;;;;;;14.15;10.30;;;9.80;94.30;;;;;;2114797;28;20530;-90
2021/11/13 04:14:11;;;;;;;13.80;10.93;;;9.70;94.30;;;;;;2113498;28;20023;-90
2021/11/13 04:15:13;;;;;;;13.63;10.95;;;9.80;94.30;;;;;;2108236;28;20024;-91
2021/11/13 04:16:14;;;;;;;15.93;10.75;;;9.80;94.30;;;;;;2106240;28;20050;-90
2021/11/13 04:17:15;;;;;;;15.13;10.27;;;9.80;94.30;;;;;;2106568;28;20050;-91
2021/11/13 04:18:15;;;;;;;14.68;10.88;;;9.80;94.40;;;;;;2108379;28;20485;-90
2021/11/13 04:19:16;;;;;;;15.98;10.88;;;9.80;94.30;;;;;;2097956;28;20017;-90
2021/11/13 04:20:19;;;;;;;13.60;10.18;;;9.80;94.30;;;;;;2094390;28;20127;-91
2021/11/13 04:21:20;;;;;;;13.88;10.15;;;9.80;94.40;;;;;;2104664;28;20089;-90
2021/11/13 04:22:21;;;;;;;13.80;10.30;;;9.80;94.30;;;;;;2102817;28;20502;-91
2021/11/13 04:23:22;;;;;;;13.32;9.63;;;9.80;94.40;;;;;;2089395;28;20025;-90
2021/11/13 04:24:23;;;;;;;13.40;10.15;;;9.80;94.40;;;;;;2089080;28;20033;-92
2021/11/13 04:25:23;;;;;;;13.32;10.02;;;9.80;94.40;;;;;;2114441;28;20104;-91
2021/11/13 04:26:24;;;;;;;12.75;9.88;;;9.80;94.40;;;;;;2108710;28;20507;-92
2021/11/13 04:27:25;;;;;;;14.43;10.20;;;9.80;94.40;;;;;;2107106;28;20039;-91
2021/11/13 04:28:25;;;;;;;14.63;10.32;;;9.80;94.40;;;;;;2107959;28;20044;-91
2021/11/13 04:29:26;;;;;;;15.40;10.57;;;9.90;94.40;;;;;;2114312;28;20538;-92
2021/11/13 04:30:27;;;;;;;12.93;9.55;;;9.80;94.40;;;;;;2107786;28;20020;-92
2021/11/13 04:31:28;;;;;;;13.55;9.48;;;9.90;94.70;;;;;;2099605;28;20017;-91
2021/11/13 04:32:29;;;;;;;13.75;9.63;;;9.90;94.40;;;;;;2107341;28;20170;-91
2021/11/13 04:33:33;;;;;;;13.68;9.45;;;9.80;94.40;;;;;;2115561;28;20055;-91
2021/11/13 04:34:45;;;;;;;12.25;9.13;;;9.90;94.40;;;;;;2098914;28;20029;-90
2021/11/13 04:36:16;;;;;;;13.23;9.32;;;9.90;94.40;;;;;;2101791;28;20461;-92
2021/11/13 04:37:16;;;;;;;11.43;8.77;;;9.90;94.40;;;;;;2108320;28;20044;-91
2021/11/13 04:38:17;;;;;;;12.48;8.85;;;9.90;94.60;;;;;;2109769;28;20031;-90
2021/11/13 04:39:19;;;;;;;11.88;9.00;;;9.90;94.40;;;;;;2109234;28;20468;-92
2021/11/13 04:40:22;;;;;;;12.98;9.20;;;9.90;94.60;;;;;;2109864;28;20035;-91
2021/11/13 04:41:23;;;;;;;12.05;9.23;;;9.90;94.40;;;;;;2110935;28;20381;-91
2021/11/13 04:42:24;;;;;;;11.98;8.98;;;9.90;94.40;;;;;;2111030;28;20024;-91
2021/11/13 04:43:24;;;;;;;12.23;8.95;;;9.90;94.40;;;;;;2105561;28;20043;-91
2021/11/13 04:44:25;;;;;;;12.85;9.18;;;9.90;94.40;;;;;;2100790;28;20029;-91
2021/11/13 04:45:26;;;;;;;12.98;9.15;;;9.90;94.40;;;;;;2100286;28;20040;-91
2021/11/13 04:46:26;;;;;;;11.75;9.20;;;9.90;94.40;;;;;;2105185;28;20137;-91
2021/11/13 04:47:27;;;;;;;11.23;8.73;;;9.90;94.40;;;;;;2106941;28;20512;-92
2021/11/13 04:48:28;;;;;;;11.25;8.55;;;9.90;94.40;;;;;;2107802;28;20628;-91
2021/11/13 04:49:28;;;;;;;12.05;8.98;;;9.90;94.40;;;;;;2102666;28;20029;-90
2021/11/13 04:50:33;;;;;;;12.35;8.07;;;9.90;94.40;;;;;;2109311;28;20016;-91
2021/11/13 04:51:34;;;;;;;11.32;8.95;;;10.00;94.40;;;;;;2112031;28;20035;-91
2021/11/13 04:52:34;;;;;;;11.55;8.55;;;9.90;94.40;;;;;;2109958;28;20406;-90
2021/11/13 04:53:35;;;;;;;12.18;8.77;;;9.90;94.40;;;;;;2108299;28;20073;-91
2021/11/13 04:54:36;;;;;;;11.73;8.95;;;9.90;94.40;;;;;;2093606;28;20457;-92
2021/11/13 04:55:37;;;;;;;12.30;8.98;;;9.90;94.40;;;;;;2099648;28;20944;-91
2021/11/13 04:56:38;;;;;;;11.93;8.85;;;9.90;94.40;;;;;;2113361;28;20507;-90
2021/11/13 04:57:39;;;;;;;11.93;8.80;;;9.90;94.40;;;;;;2105203;28;20492;-91
2021/11/13 04:58:40;;;;;;;11.25;8.70;;;10.00;94.40;;;;;;2104071;28;20017;-91
2021/11/13 04:59:42;;;;;;;11.65;8.85;;;9.90;94.40;;;;;;2099189;28;20025;-90
2021/11/13 05:00:43;;;;;;;11.82;8.82;;;9.90;94.40;;;;;;2105408;28;20060;-92
2021/11/13 05:01:43;;;;;;;13.98;9.27;;;9.90;94.40;;;;;;2117819;28;20032;-89
2021/11/13 05:02:44;;;;;;;12.25;9.13;;;10.00;94.70;;;;;;2105190;28;20119;-92
2021/11/13 05:03:45;;;;;;;12.38;8.77;;;10.00;94.50;;;;;;2097322;28;20075;-92
2021/11/13 05:04:46;;;;;;;11.82;9.00;;;10.00;94.40;;;;;;2099206;28;20024;-92
2021/11/13 05:05:47;;;;;;;13.30;9.48;;;10.00;94.40;;;;;;2101068;28;20158;-92
2021/11/13 05:06:47;;;;;;;11.30;9.00;;;10.00;94.40;;;;;;2082844;28;20037;-92
2021/11/13 05:07:49;;;;;;;12.88;9.02;;;9.90;94.40;;;;;;2082514;28;20026;-91
2021/11/13 05:08:49;;;;;;;11.63;9.15;;;10.00;94.70;;;;;;2091335;28;20029;-91
2021/11/13 05:09:51;;;;;;;11.45;8.52;;;10.00;94.40;;;;;;2101753;28;20452;-92
2021/11/13 05:10:52;;;;;;;11.73;9.00;;;10.00;94.40;;;;;;2103497;28;20021;-91
2021/11/13 05:11:53;;;;;;;11.15;8.85;;;10.00;94.40;;;;;;2105430;28;20039;-91
2021/11/13 05:12:54;;;;;;;10.98;8.52;;;10.00;94.40;;;;;;2090189;28;20044;-92
2021/11/13 05:13:54;;;;;;;12.63;8.60;;;10.00;94.40;;;;;;2097809;28;20499;-91
2021/11/13 05:14:55;;;;;;;11.25;8.30;;;10.00;94.50;;;;;;2090595;28;20029;-91
2021/11/13 05:15:56;;;;;;;11.90;8.60;;;10.00;94.50;;;;;;2098000;28;20071;-91
2021/11/13 05:16:56;;;;;;;12.07;8.63;;;10.00;94.50;;;;;;2098569;28;20111;-91
2021/11/13 05:17:57;;;;;;;11.45;8.88;;;10.00;94.50;;;;;;2111317;28;20024;-90
2021/11/13 05:18:58;;;;;;;10.77;8.52;;;10.00;94.50;;;;;;2114746;28;20004;-91